< < Back
Terminal Aerodrome Forecast


Current Version              Previous Versions:   1  2  3  4  5  6  7  8  9  

Terminal Aerodrome Forecast

900
FTUS44 KOHX 232300
TAFBNA
TAF
KBNA 232324Z 2400/2424 03003KT P6SM BKN250
     FM241200 36003KT P6SM SCT250=



Latest METAR

946
SAUS70 KWBC 250400 RRB
MTRBNA
METAR KBNA 250353Z 19003KT 10SM CLR 11/09 A3010 RMK AO2 SLP190
T01060089


USA.gov is the U.S. government's official web portal to all federal, state and local government web resources and services.